sensor_id;sensor_type;location;lat;lon;timestamp;pressure;altitude;pressure_sealevel;temperature;humidity
47883;BME280;37739;50.350;7.578;2023-05-17T00:01:01;100387.00;;;10.60;66.09
47883;BME280;37739;50.350;7.578;2023-05-17T00:03:26;100384.06;;;10.52;67.08
47883;BME280;37739;50.350;7.578;2023-05-17T00:05:54;100378.22;;;10.55;66.13
47883;BME280;37739;50.350;7.578;2023-05-17T00:08:19;100393.03;;;10.60;66.31
47883;BME280;37739;50.350;7.578;2023-05-17T00:10:45;100389.28;;;10.54;66.22
47883;BME280;37739;50.350;7.578;2023-05-17T00:13:13;100391.56;;;10.48;66.76
47883;BME280;37739;50.350;7.578;2023-05-17T00:15:38;100387.69;;;10.38;66.90
47883;BME280;37739;50.350;7.578;2023-05-17T00:18:04;100390.75;;;10.49;66.93
47883;BME280;37739;50.350;7.578;2023-05-17T00:20:29;100386.63;;;10.52;66.76
47883;BME280;37739;50.350;7.578;2023-05-17T00:22:55;100397.34;;;10.61;66.79
47883;BME280;37739;50.350;7.578;2023-05-17T00:25:20;100396.94;;;10.72;66.21
47883;BME280;37739;50.350;7.578;2023-05-17T00:27:50;100392.22;;;10.81;65.35
47883;BME280;37739;50.350;7.578;2023-05-17T00:30:16;100387.84;;;10.78;65.56
47883;BME280;37739;50.350;7.578;2023-05-17T00:32:43;100388.88;;;10.82;65.42
47883;BME280;37739;50.350;7.578;2023-05-17T00:35:11;100394.59;;;10.76;65.20
47883;BME280;37739;50.350;7.578;2023-05-17T00:37:36;100397.47;;;10.65;65.42
47883;BME280;37739;50.350;7.578;2023-05-17T00:40:03;100399.22;;;10.66;65.26
47883;BME280;37739;50.350;7.578;2023-05-17T00:42:29;100397.09;;;10.75;65.60
47883;BME280;37739;50.350;7.578;2023-05-17T00:44:57;100401.00;;;10.67;65.36
47883;BME280;37739;50.350;7.578;2023-05-17T00:47:22;100400.91;;;10.65;65.68
47883;BME280;37739;50.350;7.578;2023-05-17T00:49:48;100401.34;;;10.56;66.35
47883;BME280;37739;50.350;7.578;2023-05-17T00:52:13;100406.84;;;10.64;66.08
47883;BME280;37739;50.350;7.578;2023-05-17T00:54:39;100398.44;;;10.49;66.62
47883;BME280;37739;50.350;7.578;2023-05-17T00:57:05;100401.97;;;10.33;67.49
47883;BME280;37739;50.350;7.578;2023-05-17T00:59:30;100406.22;;;10.32;67.71
47883;BME280;37739;50.350;7.578;2023-05-17T01:01:59;100406.00;;;10.46;66.65
47883;BME280;37739;50.350;7.578;2023-05-17T01:04:24;100410.31;;;10.47;67.00
47883;BME280;37739;50.350;7.578;2023-05-17T01:06:50;100411.81;;;10.41;67.06
47883;BME280;37739;50.350;7.578;2023-05-17T01:09:16;100411.81;;;10.41;67.33
47883;BME280;37739;50.350;7.578;2023-05-17T01:17:34;100424.06;;;10.13;68.16
47883;BME280;37739;50.350;7.578;2023-05-17T01:20:13;100419.31;;;10.20;67.77
47883;BME280;37739;50.350;7.578;2023-05-17T01:27:51;100428.06;;;9.90;68.98
47883;BME280;37739;50.350;7.578;2023-05-17T01:30:19;100431.41;;;9.89;68.83
47883;BME280;37739;50.350;7.578;2023-05-17T01:32:47;100426.81;;;9.81;69.35
47883;BME280;37739;50.350;7.578;2023-05-17T01:35:15;100428.91;;;9.72;69.70
47883;BME280;37739;50.350;7.578;2023-05-17T01:37:40;100430.16;;;9.80;68.71
47883;BME280;37739;50.350;7.578;2023-05-17T01:40:06;100432.75;;;9.98;68.27
47883;BME280;37739;50.350;7.578;2023-05-17T01:42:35;100445.44;;;9.95;68.34
47883;BME280;37739;50.350;7.578;2023-05-17T01:45:38;100438.66;;;9.79;69.05
47883;BME280;37739;50.350;7.578;2023-05-17T01:48:19;100442.03;;;9.78;69.06
47883;BME280;37739;50.350;7.578;2023-05-17T01:50:49;100442.69;;;9.74;69.18
47883;BME280;37739;50.350;7.578;2023-05-17T01:53:29;100450.75;;;9.66;69.43
47883;BME280;37739;50.350;7.578;2023-05-17T01:56:02;100448.31;;;9.51;70.24
47883;BME280;37739;50.350;7.578;2023-05-17T01:58:35;100452.97;;;9.41;70.47
47883;BME280;37739;50.350;7.578;2023-05-17T02:01:07;100456.22;;;9.55;70.15
47883;BME280;37739;50.350;7.578;2023-05-17T02:03:32;100453.88;;;9.60;69.80
47883;BME280;37739;50.350;7.578;2023-05-17T02:06:00;100463.81;;;9.54;69.44
47883;BME280;37739;50.350;7.578;2023-05-17T02:08:25;100465.09;;;9.62;69.61
47883;BME280;37739;50.350;7.578;2023-05-17T02:10:51;100454.22;;;9.66;69.62
47883;BME280;37739;50.350;7.578;2023-05-17T02:13:16;100466.31;;;9.52;70.13
47883;BME280;37739;50.350;7.578;2023-05-17T02:15:41;100461.75;;;9.47;70.24
47883;BME280;37739;50.350;7.578;2023-05-17T02:18:07;100460.56;;;9.40;70.80
47883;BME280;37739;50.350;7.578;2023-05-17T02:20:37;100463.50;;;9.48;70.96
47883;BME280;37739;50.350;7.578;2023-05-17T02:23:02;100470.22;;;9.62;69.79
47883;BME280;37739;50.350;7.578;2023-05-17T02:25:27;100458.53;;;9.67;69.41
47883;BME280;37739;50.350;7.578;2023-05-17T02:27:53;100473.59;;;9.61;70.15
47883;BME280;37739;50.350;7.578;2023-05-17T02:30:18;100466.66;;;9.58;70.18
47883;BME280;37739;50.350;7.578;2023-05-17T02:32:48;100473.97;;;9.52;70.38
47883;BME280;37739;50.350;7.578;2023-05-17T02:35:17;100471.75;;;9.58;70.50
47883;BME280;37739;50.350;7.578;2023-05-17T02:37:43;100473.94;;;9.51;70.35
47883;BME280;37739;50.350;7.578;2023-05-17T02:40:08;100479.03;;;9.67;69.85
47883;BME280;37739;50.350;7.578;2023-05-17T02:42:35;100478.94;;;9.66;69.86
47883;BME280;37739;50.350;7.578;2023-05-17T02:45:02;100479.59;;;9.78;69.87
47883;BME280;37739;50.350;7.578;2023-05-17T02:47:27;100474.78;;;9.84;69.57
47883;BME280;37739;50.350;7.578;2023-05-17T02:49:52;100470.75;;;9.89;69.47
47883;BME280;37739;50.350;7.578;2023-05-17T02:52:18;100465.69;;;9.91;69.46
47883;BME280;37739;50.350;7.578;2023-05-17T02:54:45;100472.13;;;9.82;70.26
47883;BME280;37739;50.350;7.578;2023-05-17T02:57:13;100472.59;;;9.75;70.10
47883;BME280;37739;50.350;7.578;2023-05-17T02:59:40;100473.13;;;9.68;70.13
47883;BME280;37739;50.350;7.578;2023-05-17T03:02:06;100476.69;;;9.72;70.23
47883;BME280;37739;50.350;7.578;2023-05-17T03:04:31;100476.06;;;9.76;69.63
47883;BME280;37739;50.350;7.578;2023-05-17T03:06:57;100480.25;;;9.74;69.85
47883;BME280;37739;50.350;7.578;2023-05-17T03:09:23;100484.88;;;9.65;70.74
47883;BME280;37739;50.350;7.578;2023-05-17T03:11:48;100479.09;;;9.52;71.00
47883;BME280;37739;50.350;7.578;2023-05-17T03:14:14;100475.59;;;9.50;70.75
47883;BME280;37739;50.350;7.578;2023-05-17T03:16:39;100482.31;;;9.48;71.06
47883;BME280;37739;50.350;7.578;2023-05-17T03:19:04;100477.59;;;9.39;71.45
47883;BME280;37739;50.350;7.578;2023-05-17T03:21:30;100473.91;;;9.34;72.12
47883;BME280;37739;50.350;7.578;2023-05-17T03:23:57;100481.69;;;9.36;71.79
47883;BME280;37739;50.350;7.578;2023-05-17T03:26:23;100483.84;;;9.28;72.05
47883;BME280;37739;50.350;7.578;2023-05-17T03:28:49;100480.09;;;9.38;71.84
47883;BME280;37739;50.350;7.578;2023-05-17T03:31:16;100484.06;;;9.33;72.28
47883;BME280;37739;50.350;7.578;2023-05-17T03:33:43;100490.66;;;9.28;72.42
47883;BME280;37739;50.350;7.578;2023-05-17T03:36:08;100489.50;;;9.22;73.30
47883;BME280;37739;50.350;7.578;2023-05-17T03:38:33;100487.59;;;9.35;72.52
47883;BME280;37739;50.350;7.578;2023-05-17T03:41:00;100486.56;;;9.48;72.18
47883;BME280;37739;50.350;7.578;2023-05-17T03:43:27;100497.53;;;9.45;72.45
47883;BME280;37739;50.350;7.578;2023-05-17T03:45:53;100495.38;;;9.53;71.94
47883;BME280;37739;50.350;7.578;2023-05-17T03:48:18;100500.91;;;9.60;72.15
47883;BME280;37739;50.350;7.578;2023-05-17T03:50:44;100500.91;;;9.60;72.96
47883;BME280;37739;50.350;7.578;2023-05-17T03:53:14;100501.69;;;9.59;72.61
47883;BME280;37739;50.350;7.578;2023-05-17T03:55:42;100503.84;;;9.52;73.00
47883;BME280;37739;50.350;7.578;2023-05-17T03:58:07;100507.94;;;9.48;73.26
47883;BME280;37739;50.350;7.578;2023-05-17T04:00:35;100505.44;;;9.50;73.40
47883;BME280;37739;50.350;7.578;2023-05-17T04:03:00;100509.16;;;9.55;73.33
47883;BME280;37739;50.350;7.578;2023-05-17T04:05:25;100515.94;;;9.54;73.50
47883;BME280;37739;50.350;7.578;2023-05-17T04:07:53;100508.72;;;9.63;72.68
47883;BME280;37739;50.350;7.578;2023-05-17T04:10:18;100513.53;;;9.57;73.30
47883;BME280;37739;50.350;7.578;2023-05-17T04:12:47;100516.84;;;9.55;73.39
47883;BME280;37739;50.350;7.578;2023-05-17T04:15:14;100518.66;;;9.57;73.58
47883;BME280;37739;50.350;7.578;2023-05-17T04:17:39;100522.91;;;9.57;73.60
47883;BME280;37739;50.350;7.578;2023-05-17T04:20:07;100519.72;;;9.61;72.94
47883;BME280;37739;50.350;7.578;2023-05-17T04:22:35;100521.28;;;9.75;72.40
47883;BME280;37739;50.350;7.578;2023-05-17T04:25:03;100518.03;;;9.78;72.94
47883;BME280;37739;50.350;7.578;2023-05-17T04:27:30;100531.00;;;9.65;73.52
47883;BME280;37739;50.350;7.578;2023-05-17T04:29:56;100520.75;;;9.65;73.25
47883;BME280;37739;50.350;7.578;2023-05-17T04:32:21;100531.00;;;9.65;74.07
47883;BME280;37739;50.350;7.578;2023-05-17T04:34:47;100530.59;;;9.57;74.46
47883;BME280;37739;50.350;7.578;2023-05-17T04:37:16;100524.75;;;9.43;74.68
47883;BME280;37739;50.350;7.578;2023-05-17T04:39:41;100534.28;;;9.46;75.61
47883;BME280;37739;50.350;7.578;2023-05-17T04:42:08;100534.75;;;9.55;74.93
47883;BME280;37739;50.350;7.578;2023-05-17T04:44:36;100537.38;;;9.56;75.61
47883;BME280;37739;50.350;7.578;2023-05-17T04:47:01;100537.22;;;9.70;74.78
47883;BME280;37739;50.350;7.578;2023-05-17T04:49:30;100539.00;;;9.71;74.68
47883;BME280;37739;50.350;7.578;2023-05-17T04:52:00;100532.66;;;9.80;74.31
47883;BME280;37739;50.350;7.578;2023-05-17T04:54:28;100542.34;;;9.86;73.98
47883;BME280;37739;50.350;7.578;2023-05-17T04:56:56;100544.09;;;9.87;74.32
47883;BME280;37739;50.350;7.578;2023-05-17T04:59:23;100538.59;;;9.96;73.78
47883;BME280;37739;50.350;7.578;2023-05-17T05:01:49;100538.81;;;10.00;73.86
47883;BME280;37739;50.350;7.578;2023-05-17T05:04:14;100548.50;;;10.06;73.70
47883;BME280;37739;50.350;7.578;2023-05-17T05:06:39;100545.94;;;10.06;73.60
47883;BME280;37739;50.350;7.578;2023-05-17T05:09:05;100553.69;;;10.08;73.66
47883;BME280;37739;50.350;7.578;2023-05-17T05:11:30;100551.22;;;10.09;73.65
47883;BME280;37739;50.350;7.578;2023-05-17T05:13:56;100564.78;;;10.07;74.19
47883;BME280;37739;50.350;7.578;2023-05-17T05:16:23;100571.44;;;10.03;74.29
47883;BME280;37739;50.350;7.578;2023-05-17T05:18:49;100576.03;;;10.10;73.72
47883;BME280;37739;50.350;7.578;2023-05-17T05:21:14;100571.97;;;10.14;74.08
47883;BME280;37739;50.350;7.578;2023-05-17T05:23:40;100579.91;;;10.18;74.07
47883;BME280;37739;50.350;7.578;2023-05-17T05:26:07;100580.03;;;10.21;73.81
47883;BME280;37739;50.350;7.578;2023-05-17T05:28:35;100582.22;;;10.14;73.87
47883;BME280;37739;50.350;7.578;2023-05-17T05:31:01;100580.59;;;10.16;73.84
47883;BME280;37739;50.350;7.578;2023-05-17T05:33:26;100583.56;;;10.23;73.76
47883;BME280;37739;50.350;7.578;2023-05-17T05:35:52;100586.28;;;10.27;74.29
47883;BME280;37739;50.350;7.578;2023-05-17T05:38:17;100593.13;;;10.26;73.89
47883;BME280;37739;50.350;7.578;2023-05-17T05:40:45;100595.06;;;10.30;73.92
47883;BME280;37739;50.350;7.578;2023-05-17T05:43:11;100593.91;;;10.25;74.53
47883;BME280;37739;50.350;7.578;2023-05-17T05:45:36;100600.56;;;10.21;74.59
47883;BME280;37739;50.350;7.578;2023-05-17T05:48:02;100598.06;;;10.23;75.17
47883;BME280;37739;50.350;7.578;2023-05-17T05:50:29;100591.41;;;10.27;75.25
47883;BME280;37739;50.350;7.578;2023-05-17T05:52:57;100591.75;;;10.33;75.31
47883;BME280;37739;50.350;7.578;2023-05-17T05:55:25;100593.81;;;10.23;75.22
47883;BME280;37739;50.350;7.578;2023-05-17T05:57:53;100603.63;;;10.31;75.35
47883;BME280;37739;50.350;7.578;2023-05-17T06:00:20;100603.72;;;10.32;74.49
47883;BME280;37739;50.350;7.578;2023-05-17T06:02:46;100605.72;;;10.38;74.56
47883;BME280;37739;50.350;7.578;2023-05-17T06:05:11;100613.25;;;10.35;74.95
47883;BME280;37739;50.350;7.578;2023-05-17T06:07:36;100617.31;;;10.31;75.36
47883;BME280;37739;50.350;7.578;2023-05-17T06:10:05;100628.38;;;10.14;75.44
47883;BME280;37739;50.350;7.578;2023-05-17T06:12:33;100628.75;;;10.21;75.22
47883;BME280;37739;50.350;7.578;2023-05-17T06:14:58;100627.41;;;10.28;75.41
47883;BME280;37739;50.350;7.578;2023-05-17T06:17:23;100633.09;;;10.22;76.10
47883;BME280;37739;50.350;7.578;2023-05-17T06:19:48;100636.16;;;10.15;75.94
47883;BME280;37739;50.350;7.578;2023-05-17T06:22:14;100631.50;;;10.25;75.55
47883;BME280;37739;50.350;7.578;2023-05-17T06:24:42;100635.03;;;10.27;75.09
47883;BME280;37739;50.350;7.578;2023-05-17T06:27:07;100633.19;;;10.40;74.53
47883;BME280;37739;50.350;7.578;2023-05-17T06:29:35;100630.88;;;10.45;74.91
47883;BME280;37739;50.350;7.578;2023-05-17T06:32:03;100641.28;;;10.48;74.22
47883;BME280;37739;50.350;7.578;2023-05-17T06:34:28;100629.09;;;10.44;74.69
47883;BME280;37739;50.350;7.578;2023-05-17T06:36:58;100626.72;;;10.65;74.72
47883;BME280;37739;50.350;7.578;2023-05-17T06:39:24;100635.22;;;10.64;74.20
47883;BME280;37739;50.350;7.578;2023-05-17T06:41:52;100643.31;;;10.72;74.65
47883;BME280;37739;50.350;7.578;2023-05-17T06:44:17;100642.03;;;10.64;74.75
47883;BME280;37739;50.350;7.578;2023-05-17T06:46:42;100645.81;;;10.70;74.87
47883;BME280;37739;50.350;7.578;2023-05-17T06:49:08;100645.81;;;10.70;74.55
47883;BME280;37739;50.350;7.578;2023-05-17T06:51:35;100657.78;;;10.53;75.77
47883;BME280;37739;50.350;7.578;2023-05-17T06:54:03;100652.41;;;10.49;75.93
47883;BME280;37739;50.350;7.578;2023-05-17T06:56:28;100655.78;;;10.31;75.67
47883;BME280;37739;50.350;7.578;2023-05-17T06:58:56;100664.53;;;10.35;75.99
47883;BME280;37739;50.350;7.578;2023-05-17T07:01:24;100660.63;;;10.41;75.21
47883;BME280;37739;50.350;7.578;2023-05-17T07:03:52;100663.09;;;10.40;75.67
47883;BME280;37739;50.350;7.578;2023-05-17T07:06:19;100663.44;;;10.64;74.93
47883;BME280;37739;50.350;7.578;2023-05-17T07:08:47;100662.97;;;10.71;74.52
47883;BME280;37739;50.350;7.578;2023-05-17T07:11:13;100656.78;;;10.68;74.47
47883;BME280;37739;50.350;7.578;2023-05-17T07:13:38;100653.72;;;10.75;74.49
47883;BME280;37739;50.350;7.578;2023-05-17T07:16:06;100650.22;;;10.73;74.42
47883;BME280;37739;50.350;7.578;2023-05-17T07:18:36;100661.66;;;10.79;74.76
47883;BME280;37739;50.350;7.578;2023-05-17T07:21:01;100654.88;;;11.16;73.92
47883;BME280;37739;50.350;7.578;2023-05-17T07:23:27;100651.63;;;11.20;73.58
47883;BME280;37739;50.350;7.578;2023-05-17T07:25:55;100648.69;;;11.48;72.29
47883;BME280;37739;50.350;7.578;2023-05-17T07:28:22;100652.34;;;11.71;71.68
47883;BME280;37739;50.350;7.578;2023-05-17T07:30:52;100652.06;;;11.65;70.94
47883;BME280;37739;50.350;7.578;2023-05-17T07:33:20;100650.16;;;11.61;70.68
47883;BME280;37739;50.350;7.578;2023-05-17T07:35:45;100651.63;;;11.56;70.96
47883;BME280;37739;50.350;7.578;2023-05-17T07:38:15;100650.94;;;11.23;71.16
47883;BME280;37739;50.350;7.578;2023-05-17T07:40:41;100655.09;;;11.03;72.89
47883;BME280;37739;50.350;7.578;2023-05-17T07:43:06;100655.25;;;11.06;72.40
47883;BME280;37739;50.350;7.578;2023-05-17T07:45:34;100657.81;;;11.06;72.77
47883;BME280;37739;50.350;7.578;2023-05-17T07:48:02;100655.16;;;11.04;72.63
47883;BME280;37739;50.350;7.578;2023-05-17T07:50:29;100653.72;;;11.09;71.92
47883;BME280;37739;50.350;7.578;2023-05-17T07:52:55;100654.88;;;10.98;72.18
47883;BME280;37739;50.350;7.578;2023-05-17T07:55:20;100657.91;;;10.73;73.26
47883;BME280;37739;50.350;7.578;2023-05-17T07:57:50;100659.41;;;10.86;73.25
47883;BME280;37739;50.350;7.578;2023-05-17T08:00:17;100656.06;;;11.23;73.04
47883;BME280;37739;50.350;7.578;2023-05-17T08:02:43;100668.59;;;11.70;71.72
47883;BME280;37739;50.350;7.578;2023-05-17T08:05:09;100674.47;;;11.87;70.52
47883;BME280;37739;50.350;7.578;2023-05-17T08:07:34;100672.16;;;11.92;70.60
47883;BME280;37739;50.350;7.578;2023-05-17T08:10:00;100664.16;;;11.86;69.90
47883;BME280;37739;50.350;7.578;2023-05-17T08:12:25;100662.75;;;11.92;69.31
47883;BME280;37739;50.350;7.578;2023-05-17T08:14:51;100670.63;;;12.15;69.29
47883;BME280;37739;50.350;7.578;2023-05-17T08:17:16;100662.22;;;12.00;68.55
47883;BME280;37739;50.350;7.578;2023-05-17T08:19:42;100669.59;;;12.11;68.34
47883;BME280;37739;50.350;7.578;2023-05-17T08:22:07;100659.56;;;11.98;67.03
47883;BME280;37739;50.350;7.578;2023-05-17T08:24:33;100657.63;;;12.12;67.34
47883;BME280;37739;50.350;7.578;2023-05-17T08:27:01;100658.81;;;12.20;67.34
47883;BME280;37739;50.350;7.578;2023-05-17T08:29:28;100661.81;;;12.29;66.95
47883;BME280;37739;50.350;7.578;2023-05-17T08:31:54;100656.09;;;12.56;66.20
47883;BME280;37739;50.350;7.578;2023-05-17T08:34:19;100660.31;;;12.54;64.51
47883;BME280;37739;50.350;7.578;2023-05-17T08:36:47;100664.03;;;12.61;65.16
47883;BME280;37739;50.350;7.578;2023-05-17T08:39:12;100659.91;;;12.45;65.30
47883;BME280;37739;50.350;7.578;2023-05-17T08:41:39;100653.78;;;12.62;65.68
47883;BME280;37739;50.350;7.578;2023-05-17T08:44:04;100660.09;;;12.69;65.35
47883;BME280;37739;50.350;7.578;2023-05-17T08:46:31;100658.31;;;12.68;65.12
47883;BME280;37739;50.350;7.578;2023-05-17T08:48:58;100658.47;;;12.92;64.12
47883;BME280;37739;50.350;7.578;2023-05-17T08:51:26;100658.06;;;12.83;63.37
47883;BME280;37739;50.350;7.578;2023-05-17T08:53:51;100659.75;;;12.61;64.04
47883;BME280;37739;50.350;7.578;2023-05-17T08:56:19;100661.34;;;12.38;63.53
47883;BME280;37739;50.350;7.578;2023-05-17T08:58:47;100657.47;;;12.48;64.23
47883;BME280;37739;50.350;7.578;2023-05-17T09:01:19;100654.97;;;12.49;63.73
47883;BME280;37739;50.350;7.578;2023-05-17T09:03:48;100653.41;;;12.95;63.72
47883;BME280;37739;50.350;7.578;2023-05-17T09:06:20;100640.97;;;13.27;58.30
47883;BME280;37739;50.350;7.578;2023-05-17T09:08:52;100652.50;;;13.58;58.01
47883;BME280;37739;50.350;7.578;2023-05-17T09:11:26;100653.34;;;14.03;57.23
47883;BME280;37739;50.350;7.578;2023-05-17T09:14:00;100651.34;;;14.20;54.06
47883;BME280;37739;50.350;7.578;2023-05-17T09:16:36;100655.56;;;13.47;54.09
47883;BME280;37739;50.350;7.578;2023-05-17T09:19:03;100657.31;;;13.06;54.68
47883;BME280;37739;50.350;7.578;2023-05-17T09:21:29;100664.75;;;12.58;56.73
47883;BME280;37739;50.350;7.578;2023-05-17T09:23:56;100656.06;;;12.75;56.78
47883;BME280;37739;50.350;7.578;2023-05-17T09:26:36;100648.75;;;13.28;54.62
47883;BME280;37739;50.350;7.578;2023-05-17T09:29:06;100650.94;;;13.84;54.23
47883;BME280;37739;50.350;7.578;2023-05-17T09:31:39;100653.34;;;14.27;51.04
47883;BME280;37739;50.350;7.578;2023-05-17T09:34:05;100649.13;;;14.29;50.91
47883;BME280;37739;50.350;7.578;2023-05-17T09:36:40;100656.19;;;13.87;51.68
47883;BME280;37739;50.350;7.578;2023-05-17T09:39:06;100658.94;;;13.46;52.37
47883;BME280;37739;50.350;7.578;2023-05-17T09:41:45;100654.06;;;13.99;52.72
47883;BME280;37739;50.350;7.578;2023-05-17T09:44:15;100644.84;;;14.30;51.97
47883;BME280;37739;50.350;7.578;2023-05-17T09:46:44;100654.09;;;14.49;50.96
47883;BME280;37739;50.350;7.578;2023-05-17T09:49:12;100654.09;;;14.01;49.16
47883;BME280;37739;50.350;7.578;2023-05-17T09:51:40;100649.81;;;13.77;49.02
47883;BME280;37739;50.350;7.578;2023-05-17T09:54:06;100638.91;;;13.84;51.01
47883;BME280;37739;50.350;7.578;2023-05-17T09:56:39;100646.50;;;13.59;49.63
47883;BME280;37739;50.350;7.578;2023-05-17T09:59:10;100648.19;;;13.35;49.94
47883;BME280;37739;50.350;7.578;2023-05-17T10:01:39;100642.00;;;13.75;49.86
47883;BME280;37739;50.350;7.578;2023-05-17T10:04:08;100640.16;;;14.44;49.69
47883;BME280;37739;50.350;7.578;2023-05-17T10:06:37;100643.00;;;14.51;47.17
47883;BME280;37739;50.350;7.578;2023-05-17T10:09:05;100640.97;;;14.92;47.21
47883;BME280;37739;50.350;7.578;2023-05-17T10:11:34;100633.72;;;15.08;45.10
47883;BME280;37739;50.350;7.578;2023-05-17T10:14:08;100631.13;;;15.64;45.71
47883;BME280;37739;50.350;7.578;2023-05-17T10:16:36;100629.88;;;15.78;43.52
47883;BME280;37739;50.350;7.578;2023-05-17T10:19:02;100645.78;;;15.92;42.73
47883;BME280;37739;50.350;7.578;2023-05-17T10:21:30;100630.94;;;15.29;46.17
47883;BME280;37739;50.350;7.578;2023-05-17T10:24:04;100629.09;;;14.72;47.48
47883;BME280;37739;50.350;7.578;2023-05-17T10:26:30;100638.88;;;14.81;48.83
47883;BME280;37739;50.350;7.578;2023-05-17T10:29:00;100635.97;;;14.71;48.94
47883;BME280;37739;50.350;7.578;2023-05-17T10:31:29;100623.06;;;14.71;48.35
47883;BME280;37739;50.350;7.578;2023-05-17T10:33:55;100624.06;;;15.02;45.43
47883;BME280;37739;50.350;7.578;2023-05-17T10:36:23;100621.22;;;15.50;45.94
47883;BME280;37739;50.350;7.578;2023-05-17T10:38:49;100621.06;;;16.35;43.47
47883;BME280;37739;50.350;7.578;2023-05-17T10:41:18;100624.28;;;15.66;41.06
47883;BME280;37739;50.350;7.578;2023-05-17T10:43:46;100606.91;;;15.90;42.62
47883;BME280;37739;50.350;7.578;2023-05-17T10:46:15;100607.94;;;15.96;41.69
47883;BME280;37739;50.350;7.578;2023-05-17T10:48:41;100607.41;;;15.77;39.88
47883;BME280;37739;50.350;7.578;2023-05-17T10:51:07;100604.38;;;15.92;41.46
47883;BME280;37739;50.350;7.578;2023-05-17T10:54:03;100603.50;;;16.23;40.78
47883;BME280;37739;50.350;7.578;2023-05-17T10:56:33;100598.09;;;16.49;40.12
47883;BME280;37739;50.350;7.578;2023-05-17T10:59:21;100593.59;;;16.75;38.81
47883;BME280;37739;50.350;7.578;2023-05-17T11:01:50;100592.22;;;16.90;38.97
47883;BME280;37739;50.350;7.578;2023-05-17T11:04:27;100601.25;;;17.43;37.34
47883;BME280;37739;50.350;7.578;2023-05-17T11:10:19;100591.63;;;16.65;39.83
47883;BME280;37739;50.350;7.578;2023-05-17T11:12:45;100587.19;;;16.94;40.44
47883;BME280;37739;50.350;7.578;2023-05-17T11:15:23;100589.44;;;17.18;39.03
47883;BME280;37739;50.350;7.578;2023-05-17T11:17:53;100574.72;;;17.99;39.67
47883;BME280;37739;50.350;7.578;2023-05-17T11:25:27;100570.91;;;17.80;39.70
47883;BME280;37739;50.350;7.578;2023-05-17T11:27:58;100565.25;;;18.00;37.46
47883;BME280;37739;50.350;7.578;2023-05-17T11:30:32;100562.25;;;18.25;36.97
47883;BME280;37739;50.350;7.578;2023-05-17T11:35:27;100564.31;;;18.45;37.35
47883;BME280;37739;50.350;7.578;2023-05-17T11:37:54;100562.28;;;18.79;35.77
47883;BME280;37739;50.350;7.578;2023-05-17T11:40:37;100569.00;;;18.66;36.68
47883;BME280;37739;50.350;7.578;2023-05-17T11:43:15;100565.66;;;18.23;36.61
47883;BME280;37739;50.350;7.578;2023-05-17T11:45:43;100561.44;;;18.80;34.97
47883;BME280;37739;50.350;7.578;2023-05-17T11:48:13;100562.34;;;18.32;35.79
47883;BME280;37739;50.350;7.578;2023-05-17T11:50:42;100567.28;;;17.74;36.15
47883;BME280;37739;50.350;7.578;2023-05-17T11:53:13;100558.28;;;17.99;35.94
47883;BME280;37739;50.350;7.578;2023-05-17T11:58:06;100558.94;;;18.36;34.19
47883;BME280;37739;50.350;7.578;2023-05-17T12:00:40;100568.81;;;18.07;35.11
47883;BME280;37739;50.350;7.578;2023-05-17T12:03:25;100566.00;;;18.43;34.37
47883;BME280;37739;50.350;7.578;2023-05-17T12:06:12;100555.19;;;18.70;33.26
47883;BME280;37739;50.350;7.578;2023-05-17T12:08:44;100561.19;;;19.21;34.49
47883;BME280;37739;50.350;7.578;2023-05-17T12:11:13;100556.31;;;19.47;34.13
47883;BME280;37739;50.350;7.578;2023-05-17T12:13:42;100556.66;;;19.72;33.63
47883;BME280;37739;50.350;7.578;2023-05-17T12:16:10;100567.44;;;18.77;34.01
47883;BME280;37739;50.350;7.578;2023-05-17T12:18:41;100556.13;;;18.74;34.36
47883;BME280;37739;50.350;7.578;2023-05-17T12:21:11;100558.63;;;18.17;35.71
47883;BME280;37739;50.350;7.578;2023-05-17T12:23:39;100567.25;;;17.72;35.74
47883;BME280;37739;50.350;7.578;2023-05-17T12:26:07;100561.78;;;18.48;36.83
47883;BME280;37739;50.350;7.578;2023-05-17T12:28:37;100568.09;;;19.20;34.89
47883;BME280;37739;50.350;7.578;2023-05-17T12:31:05;100557.63;;;18.59;33.89
47883;BME280;37739;50.350;7.578;2023-05-17T12:33:35;100571.41;;;18.54;33.47
47883;BME280;37739;50.350;7.578;2023-05-17T12:36:02;100559.19;;;19.03;32.29
47883;BME280;37739;50.350;7.578;2023-05-17T12:38:30;100560.41;;;19.28;32.64
47883;BME280;37739;50.350;7.578;2023-05-17T12:41:01;100554.13;;;18.59;31.23
47883;BME280;37739;50.350;7.578;2023-05-17T12:43:32;100570.81;;;19.28;31.37
47883;BME280;37739;50.350;7.578;2023-05-17T12:48:36;100555.59;;;19.57;31.50
47883;BME280;37739;50.350;7.578;2023-05-17T12:51:18;100566.47;;;19.94;30.39
47883;BME280;37739;50.350;7.578;2023-05-17T12:53:56;100558.16;;;20.31;30.54
47883;BME280;37739;50.350;7.578;2023-05-17T12:56:29;100564.03;;;19.39;31.98
47883;BME280;37739;50.350;7.578;2023-05-17T12:59:13;100560.19;;;19.13;33.29
47883;BME280;37739;50.350;7.578;2023-05-17T13:01:51;100549.06;;;19.90;32.16
47883;BME280;37739;50.350;7.578;2023-05-17T13:04:20;100548.91;;;20.64;32.35
47883;BME280;37739;50.350;7.578;2023-05-17T13:06:57;100555.56;;;19.56;31.30
47883;BME280;37739;50.350;7.578;2023-05-17T13:09:25;100557.56;;;19.10;31.40
47883;BME280;37739;50.350;7.578;2023-05-17T13:12:05;100555.31;;;19.37;30.62
47883;BME280;37739;50.350;7.578;2023-05-17T13:14:47;100549.22;;;20.07;30.76
47883;BME280;37739;50.350;7.578;2023-05-17T13:17:34;100557.34;;;19.60;32.36
47883;BME280;37739;50.350;7.578;2023-05-17T13:20:00;100552.75;;;20.12;31.79
47883;BME280;37739;50.350;7.578;2023-05-17T13:22:26;100556.03;;;20.89;30.11
47883;BME280;37739;50.350;7.578;2023-05-17T13:24:54;100544.66;;;20.79;29.63